sensor_id;sensor_type;location;lat;lon;timestamp;P1;durP1;ratioP1;P2;durP2;ratioP2
49828;SDS011;35723;51.194;5.112;2024-03-25T00:28:51;21.30;;;5.50;;
49828;SDS011;35723;51.194;5.112;2024-03-25T00:31:17;24.83;;;5.95;;
49828;SDS011;35723;51.194;5.112;2024-03-25T01:17:08;22.15;;;5.90;;
49828;SDS011;35723;51.194;5.112;2024-03-25T01:19:34;26.00;;;7.07;;
49828;SDS011;35723;51.194;5.112;2024-03-25T01:32:32;28.07;;;6.60;;
49828;SDS011;35723;51.194;5.112;2024-03-25T01:34:58;22.92;;;6.10;;
49828;SDS011;35723;51.194;5.112;2024-03-25T01:57:50;25.08;;;6.57;;
49828;SDS011;35723;51.194;5.112;2024-03-25T02:00:16;23.80;;;6.75;;
49828;SDS011;35723;51.194;5.112;2024-03-25T02:02:43;21.00;;;6.57;;
49828;SDS011;35723;51.194;5.112;2024-03-25T02:12:23;22.40;;;5.95;;
49828;SDS011;35723;51.194;5.112;2024-03-25T02:18:11;18.42;;;6.53;;
49828;SDS011;35723;51.194;5.112;2024-03-25T02:27:36;22.05;;;6.60;;
49828;SDS011;35723;51.194;5.112;2024-03-25T02:30:06;20.40;;;6.65;;
49828;SDS011;35723;51.194;5.112;2024-03-25T02:32:34;22.77;;;7.00;;
49828;SDS011;35723;51.194;5.112;2024-03-25T02:38:26;24.05;;;5.82;;
49828;SDS011;35723;51.194;5.112;2024-03-25T02:51:07;24.05;;;6.47;;
49828;SDS011;35723;51.194;5.112;2024-03-25T02:53:33;23.70;;;7.18;;
49828;SDS011;35723;51.194;5.112;2024-03-25T02:55:59;19.63;;;6.80;;
49828;SDS011;35723;51.194;5.112;2024-03-25T03:19:07;21.38;;;7.05;;
49828;SDS011;35723;51.194;5.112;2024-03-25T03:31:32;25.10;;;8.52;;
49828;SDS011;35723;51.194;5.112;2024-03-25T03:33:57;25.05;;;9.05;;
49828;SDS011;35723;51.194;5.112;2024-03-25T04:21:01;24.92;;;7.90;;
49828;SDS011;35723;51.194;5.112;2024-03-25T04:23:27;20.13;;;7.38;;
49828;SDS011;35723;51.194;5.112;2024-03-25T04:25:53;23.55;;;8.07;;
49828;SDS011;35723;51.194;5.112;2024-03-25T04:32:02;25.65;;;7.60;;
49828;SDS011;35723;51.194;5.112;2024-03-25T04:34:29;23.85;;;7.00;;
49828;SDS011;35723;51.194;5.112;2024-03-25T04:36:55;22.48;;;8.00;;
49828;SDS011;35723;51.194;5.112;2024-03-25T04:42:46;22.08;;;7.57;;
49828;SDS011;35723;51.194;5.112;2024-03-25T04:45:11;26.48;;;7.10;;
49828;SDS011;35723;51.194;5.112;2024-03-25T04:47:37;23.75;;;7.57;;
49828;SDS011;35723;51.194;5.112;2024-03-25T04:56:02;20.45;;;6.88;;
49828;SDS011;35723;51.194;5.112;2024-03-25T04:58:28;21.90;;;6.85;;
49828;SDS011;35723;51.194;5.112;2024-03-25T05:00:54;19.70;;;6.80;;
49828;SDS011;35723;51.194;5.112;2024-03-25T05:03:37;26.60;;;7.28;;
49828;SDS011;35723;51.194;5.112;2024-03-25T05:09:06;22.00;;;7.13;;
49828;SDS011;35723;51.194;5.112;2024-03-25T05:11:32;20.25;;;7.25;;
49828;SDS011;35723;51.194;5.112;2024-03-25T05:19:40;23.75;;;7.07;;
49828;SDS011;35723;51.194;5.112;2024-03-25T05:22:06;21.48;;;7.60;;
49828;SDS011;35723;51.194;5.112;2024-03-25T05:24:46;21.27;;;7.13;;
49828;SDS011;35723;51.194;5.112;2024-03-25T05:30:34;20.40;;;7.18;;
49828;SDS011;35723;51.194;5.112;2024-03-25T05:33:00;21.23;;;7.22;;
49828;SDS011;35723;51.194;5.112;2024-03-25T05:35:25;24.65;;;7.88;;
49828;SDS011;35723;51.194;5.112;2024-03-25T05:38:10;20.75;;;7.28;;
49828;SDS011;35723;51.194;5.112;2024-03-25T05:44:08;18.92;;;7.43;;
49828;SDS011;35723;51.194;5.112;2024-03-25T05:49:18;24.05;;;8.40;;
49828;SDS011;35723;51.194;5.112;2024-03-25T05:51:44;20.70;;;8.27;;
49828;SDS011;35723;51.194;5.112;2024-03-25T05:54:28;25.75;;;8.68;;
49828;SDS011;35723;51.194;5.112;2024-03-25T05:56:54;27.50;;;8.73;;
49828;SDS011;35723;51.194;5.112;2024-03-25T05:59:20;25.65;;;9.00;;
49828;SDS011;35723;51.194;5.112;2024-03-25T06:01:46;24.88;;;8.38;;
49828;SDS011;35723;51.194;5.112;2024-03-25T06:10:01;26.85;;;9.43;;
49828;SDS011;35723;51.194;5.112;2024-03-25T06:12:27;32.10;;;9.95;;
49828;SDS011;35723;51.194;5.112;2024-03-25T06:21:12;23.52;;;9.70;;
49828;SDS011;35723;51.194;5.112;2024-03-25T06:27:15;31.50;;;10.45;;
49828;SDS011;35723;51.194;5.112;2024-03-25T06:29:41;28.05;;;11.05;;
49828;SDS011;35723;51.194;5.112;2024-03-25T06:32:07;27.77;;;12.85;;
49828;SDS011;35723;51.194;5.112;2024-03-25T06:34:52;36.72;;;13.13;;
49828;SDS011;35723;51.194;5.112;2024-03-25T06:40:37;32.95;;;12.38;;
49828;SDS011;35723;51.194;5.112;2024-03-25T06:43:03;33.53;;;12.88;;
49828;SDS011;35723;51.194;5.112;2024-03-25T06:45:30;31.50;;;13.05;;
49828;SDS011;35723;51.194;5.112;2024-03-25T06:48:01;33.38;;;13.75;;
49828;SDS011;35723;51.194;5.112;2024-03-25T06:50:28;30.85;;;13.45;;
49828;SDS011;35723;51.194;5.112;2024-03-25T06:52:54;30.58;;;13.70;;
49828;SDS011;35723;51.194;5.112;2024-03-25T06:55:19;32.05;;;13.93;;
49828;SDS011;35723;51.194;5.112;2024-03-25T07:04:27;32.58;;;13.35;;
49828;SDS011;35723;51.194;5.112;2024-03-25T07:06:53;34.05;;;13.25;;
49828;SDS011;35723;51.194;5.112;2024-03-25T07:09:32;35.22;;;13.70;;
49828;SDS011;35723;51.194;5.112;2024-03-25T07:15:33;36.47;;;14.10;;
49828;SDS011;35723;51.194;5.112;2024-03-25T07:21:27;35.55;;;14.45;;
49828;SDS011;35723;51.194;5.112;2024-03-25T07:23:52;43.33;;;14.50;;
49828;SDS011;35723;51.194;5.112;2024-03-25T07:26:18;45.60;;;15.88;;
49828;SDS011;35723;51.194;5.112;2024-03-25T07:31:51;43.30;;;15.80;;
49828;SDS011;35723;51.194;5.112;2024-03-25T07:37:21;48.53;;;17.02;;
49828;SDS011;35723;51.194;5.112;2024-03-25T07:52:39;46.78;;;16.92;;
49828;SDS011;35723;51.194;5.112;2024-03-25T07:55:22;43.53;;;17.40;;
49828;SDS011;35723;51.194;5.112;2024-03-25T08:13:30;46.90;;;18.10;;
49828;SDS011;35723;51.194;5.112;2024-03-25T08:19:26;45.53;;;17.38;;
49828;SDS011;35723;51.194;5.112;2024-03-25T08:21:52;49.30;;;17.63;;
49828;SDS011;35723;51.194;5.112;2024-03-25T08:24:18;45.53;;;17.08;;
49828;SDS011;35723;51.194;5.112;2024-03-25T08:26:43;50.55;;;17.20;;
49828;SDS011;35723;51.194;5.112;2024-03-25T08:29:14;49.28;;;17.77;;
49828;SDS011;35723;51.194;5.112;2024-03-25T08:35:15;49.95;;;17.60;;
49828;SDS011;35723;51.194;5.112;2024-03-25T08:37:41;43.65;;;15.95;;
49828;SDS011;35723;51.194;5.112;2024-03-25T08:40:07;42.42;;;14.95;;
49828;SDS011;35723;51.194;5.112;2024-03-25T08:42:34;39.97;;;16.25;;
49828;SDS011;35723;51.194;5.112;2024-03-25T08:44:59;36.40;;;13.73;;
49828;SDS011;35723;51.194;5.112;2024-03-25T08:47:25;42.60;;;14.73;;
49828;SDS011;35723;51.194;5.112;2024-03-25T08:49:51;45.05;;;13.68;;
49828;SDS011;35723;51.194;5.112;2024-03-25T08:52:16;38.83;;;14.48;;
49828;SDS011;35723;51.194;5.112;2024-03-25T08:54:43;38.92;;;13.15;;
49828;SDS011;35723;51.194;5.112;2024-03-25T08:57:08;36.45;;;13.55;;
49828;SDS011;35723;51.194;5.112;2024-03-25T08:59:35;39.00;;;13.05;;
49828;SDS011;35723;51.194;5.112;2024-03-25T09:02:00;34.05;;;13.32;;
49828;SDS011;35723;51.194;5.112;2024-03-25T09:04:26;37.70;;;12.25;;
49828;SDS011;35723;51.194;5.112;2024-03-25T09:06:52;33.58;;;12.43;;
49828;SDS011;35723;51.194;5.112;2024-03-25T09:09:17;31.83;;;11.13;;
49828;SDS011;35723;51.194;5.112;2024-03-25T09:12:02;36.50;;;10.30;;
49828;SDS011;35723;51.194;5.112;2024-03-25T09:14:27;32.33;;;10.32;;
49828;SDS011;35723;51.194;5.112;2024-03-25T09:16:54;33.53;;;10.10;;
49828;SDS011;35723;51.194;5.112;2024-03-25T09:19:19;30.85;;;10.38;;
49828;SDS011;35723;51.194;5.112;2024-03-25T09:21:45;29.92;;;9.90;;
49828;SDS011;35723;51.194;5.112;2024-03-25T09:24:10;31.63;;;10.57;;
49828;SDS011;35723;51.194;5.112;2024-03-25T09:26:36;39.22;;;11.57;;
49828;SDS011;35723;51.194;5.112;2024-03-25T09:29:01;30.42;;;10.20;;
49828;SDS011;35723;51.194;5.112;2024-03-25T09:31:28;28.92;;;10.05;;
49828;SDS011;35723;51.194;5.112;2024-03-25T09:33:53;33.03;;;10.30;;
49828;SDS011;35723;51.194;5.112;2024-03-25T09:36:19;31.75;;;10.32;;
49828;SDS011;35723;51.194;5.112;2024-03-25T09:38:45;31.75;;;10.30;;
49828;SDS011;35723;51.194;5.112;2024-03-25T09:41:10;31.17;;;8.90;;
49828;SDS011;35723;51.194;5.112;2024-03-25T09:43:41;27.85;;;9.32;;
49828;SDS011;35723;51.194;5.112;2024-03-25T09:46:10;24.08;;;8.18;;
49828;SDS011;35723;51.194;5.112;2024-03-25T09:48:36;25.55;;;8.40;;
49828;SDS011;35723;51.194;5.112;2024-03-25T09:51:03;26.55;;;8.35;;
49828;SDS011;35723;51.194;5.112;2024-03-25T09:53:29;23.80;;;6.90;;
49828;SDS011;35723;51.194;5.112;2024-03-25T09:55:56;24.02;;;7.20;;
49828;SDS011;35723;51.194;5.112;2024-03-25T09:58:22;21.08;;;6.85;;
49828;SDS011;35723;51.194;5.112;2024-03-25T10:00:50;22.92;;;7.20;;
49828;SDS011;35723;51.194;5.112;2024-03-25T10:03:15;21.17;;;6.85;;
49828;SDS011;35723;51.194;5.112;2024-03-25T10:05:41;21.60;;;6.53;;
49828;SDS011;35723;51.194;5.112;2024-03-25T10:08:07;21.23;;;6.18;;
49828;SDS011;35723;51.194;5.112;2024-03-25T10:10:36;22.30;;;6.82;;
49828;SDS011;35723;51.194;5.112;2024-03-25T10:13:04;21.60;;;6.30;;
49828;SDS011;35723;51.194;5.112;2024-03-25T10:15:30;23.08;;;7.43;;
49828;SDS011;35723;51.194;5.112;2024-03-25T10:17:57;25.90;;;7.32;;
49828;SDS011;35723;51.194;5.112;2024-03-25T10:20:23;23.13;;;7.22;;
49828;SDS011;35723;51.194;5.112;2024-03-25T10:22:49;22.50;;;6.80;;
49828;SDS011;35723;51.194;5.112;2024-03-25T10:27:57;13.07;;;4.03;;
49828;SDS011;35723;51.194;5.112;2024-03-25T10:30:24;23.98;;;4.55;;
49828;SDS011;35723;51.194;5.112;2024-03-25T10:32:59;14.05;;;4.82;;
49828;SDS011;35723;51.194;5.112;2024-03-25T10:35:27;17.17;;;4.65;;
49828;SDS011;35723;51.194;5.112;2024-03-25T10:37:54;14.90;;;4.65;;
49828;SDS011;35723;51.194;5.112;2024-03-25T10:40:39;15.70;;;4.82;;
49828;SDS011;35723;51.194;5.112;2024-03-25T10:45:46;15.50;;;4.57;;
49828;SDS011;35723;51.194;5.112;2024-03-25T10:48:31;15.00;;;3.90;;
49828;SDS011;35723;51.194;5.112;2024-03-25T10:50:59;15.60;;;3.88;;
49828;SDS011;35723;51.194;5.112;2024-03-25T10:53:26;16.08;;;3.85;;
49828;SDS011;35723;51.194;5.112;2024-03-25T10:55:54;13.68;;;4.47;;
49828;SDS011;35723;51.194;5.112;2024-03-25T10:58:23;14.60;;;4.00;;
49828;SDS011;35723;51.194;5.112;2024-03-25T11:00:49;18.83;;;4.80;;
49828;SDS011;35723;51.194;5.112;2024-03-25T11:03:17;20.15;;;4.93;;
49828;SDS011;35723;51.194;5.112;2024-03-25T11:05:43;16.23;;;4.55;;
49828;SDS011;35723;51.194;5.112;2024-03-25T11:08:12;18.80;;;4.38;;
49828;SDS011;35723;51.194;5.112;2024-03-25T11:10:45;14.32;;;3.58;;
49828;SDS011;35723;51.194;5.112;2024-03-25T11:13:18;13.93;;;3.70;;
49828;SDS011;35723;51.194;5.112;2024-03-25T11:15:45;16.27;;;4.05;;
49828;SDS011;35723;51.194;5.112;2024-03-25T11:18:12;16.20;;;3.85;;
49828;SDS011;35723;51.194;5.112;2024-03-25T11:20:39;16.17;;;3.92;;
49828;SDS011;35723;51.194;5.112;2024-03-25T11:23:09;14.70;;;3.75;;
49828;SDS011;35723;51.194;5.112;2024-03-25T11:25:35;16.65;;;4.15;;
49828;SDS011;35723;51.194;5.112;2024-03-25T11:28:01;14.50;;;4.10;;
49828;SDS011;35723;51.194;5.112;2024-03-25T11:30:28;16.35;;;4.18;;
49828;SDS011;35723;51.194;5.112;2024-03-25T11:32:56;15.88;;;3.83;;
49828;SDS011;35723;51.194;5.112;2024-03-25T11:35:22;18.40;;;4.32;;
49828;SDS011;35723;51.194;5.112;2024-03-25T11:37:47;14.63;;;4.07;;
49828;SDS011;35723;51.194;5.112;2024-03-25T11:40:15;16.75;;;4.78;;
49828;SDS011;35723;51.194;5.112;2024-03-25T11:42:41;28.25;;;4.85;;
49828;SDS011;35723;51.194;5.112;2024-03-25T11:45:10;17.15;;;4.63;;
49828;SDS011;35723;51.194;5.112;2024-03-25T11:47:42;14.35;;;3.90;;
49828;SDS011;35723;51.194;5.112;2024-03-25T11:50:10;15.75;;;3.50;;
49828;SDS011;35723;51.194;5.112;2024-03-25T11:52:37;11.25;;;3.70;;
49828;SDS011;35723;51.194;5.112;2024-03-25T11:55:03;12.68;;;3.45;;
49828;SDS011;35723;51.194;5.112;2024-03-25T11:57:29;12.10;;;4.05;;
49828;SDS011;35723;51.194;5.112;2024-03-25T11:59:55;13.57;;;3.50;;
49828;SDS011;35723;51.194;5.112;2024-03-25T12:02:21;13.40;;;3.25;;
49828;SDS011;35723;51.194;5.112;2024-03-25T12:04:47;15.00;;;3.40;;
49828;SDS011;35723;51.194;5.112;2024-03-25T12:07:13;13.30;;;3.40;;
49828;SDS011;35723;51.194;5.112;2024-03-25T12:09:40;10.43;;;3.05;;
49828;SDS011;35723;51.194;5.112;2024-03-25T12:12:25;10.48;;;2.88;;
49828;SDS011;35723;51.194;5.112;2024-03-25T12:14:51;10.65;;;2.45;;
49828;SDS011;35723;51.194;5.112;2024-03-25T12:17:18;7.65;;;2.70;;
49828;SDS011;35723;51.194;5.112;2024-03-25T12:19:57;10.50;;;2.80;;
49828;SDS011;35723;51.194;5.112;2024-03-25T12:22:24;9.65;;;2.55;;
49828;SDS011;35723;51.194;5.112;2024-03-25T12:24:51;12.52;;;2.53;;
49828;SDS011;35723;51.194;5.112;2024-03-25T12:27:16;8.30;;;2.40;;
49828;SDS011;35723;51.194;5.112;2024-03-25T12:29:42;9.88;;;2.45;;
49828;SDS011;35723;51.194;5.112;2024-03-25T12:32:09;6.70;;;2.45;;
49828;SDS011;35723;51.194;5.112;2024-03-25T12:34:35;8.55;;;2.50;;
49828;SDS011;35723;51.194;5.112;2024-03-25T12:37:03;6.30;;;2.25;;
49828;SDS011;35723;51.194;5.112;2024-03-25T12:39:32;10.18;;;3.00;;
49828;SDS011;35723;51.194;5.112;2024-03-25T12:41:58;10.70;;;2.60;;
49828;SDS011;35723;51.194;5.112;2024-03-25T12:44:29;11.52;;;3.10;;
49828;SDS011;35723;51.194;5.112;2024-03-25T12:46:56;8.05;;;2.60;;
49828;SDS011;35723;51.194;5.112;2024-03-25T12:49:24;11.20;;;2.90;;
49828;SDS011;35723;51.194;5.112;2024-03-25T12:51:49;9.57;;;2.65;;
49828;SDS011;35723;51.194;5.112;2024-03-25T12:54:15;10.77;;;3.10;;
49828;SDS011;35723;51.194;5.112;2024-03-25T12:56:40;10.02;;;3.20;;
49828;SDS011;35723;51.194;5.112;2024-03-25T12:59:07;11.68;;;2.95;;
49828;SDS011;35723;51.194;5.112;2024-03-25T13:01:33;8.93;;;2.53;;
49828;SDS011;35723;51.194;5.112;2024-03-25T13:03:58;10.88;;;2.83;;
49828;SDS011;35723;51.194;5.112;2024-03-25T13:06:24;8.07;;;2.67;;
49828;SDS011;35723;51.194;5.112;2024-03-25T13:08:49;8.65;;;2.75;;
49828;SDS011;35723;51.194;5.112;2024-03-25T13:11:15;11.23;;;3.00;;
49828;SDS011;35723;51.194;5.112;2024-03-25T13:13:41;7.10;;;2.47;;
49828;SDS011;35723;51.194;5.112;2024-03-25T13:16:06;10.75;;;2.65;;
49828;SDS011;35723;51.194;5.112;2024-03-25T13:18:32;9.35;;;2.70;;
49828;SDS011;35723;51.194;5.112;2024-03-25T13:20:57;10.32;;;2.55;;
49828;SDS011;35723;51.194;5.112;2024-03-25T13:23:23;10.00;;;2.42;;
49828;SDS011;35723;51.194;5.112;2024-03-25T13:25:49;8.32;;;2.38;;
49828;SDS011;35723;51.194;5.112;2024-03-25T13:28:14;9.00;;;2.67;;
49828;SDS011;35723;51.194;5.112;2024-03-25T13:30:40;8.15;;;2.40;;
49828;SDS011;35723;51.194;5.112;2024-03-25T13:33:06;8.60;;;2.80;;
49828;SDS011;35723;51.194;5.112;2024-03-25T13:35:31;8.43;;;2.90;;
49828;SDS011;35723;51.194;5.112;2024-03-25T13:37:57;15.80;;;3.33;;
49828;SDS011;35723;51.194;5.112;2024-03-25T13:40:22;7.78;;;2.58;;
49828;SDS011;35723;51.194;5.112;2024-03-25T13:42:48;10.55;;;2.88;;
49828;SDS011;35723;51.194;5.112;2024-03-25T13:45:14;10.52;;;3.25;;
49828;SDS011;35723;51.194;5.112;2024-03-25T13:47:39;11.15;;;2.80;;
49828;SDS011;35723;51.194;5.112;2024-03-25T13:50:06;8.80;;;2.53;;
49828;SDS011;35723;51.194;5.112;2024-03-25T13:52:33;9.10;;;2.60;;
49828;SDS011;35723;51.194;5.112;2024-03-25T13:54:59;10.82;;;2.90;;
49828;SDS011;35723;51.194;5.112;2024-03-25T13:57:25;12.60;;;2.85;;
49828;SDS011;35723;51.194;5.112;2024-03-25T13:59:51;8.13;;;2.60;;
49828;SDS011;35723;51.194;5.112;2024-03-25T14:02:16;12.48;;;2.88;;
49828;SDS011;35723;51.194;5.112;2024-03-25T14:04:42;7.13;;;2.70;;
49828;SDS011;35723;51.194;5.112;2024-03-25T14:07:08;11.25;;;2.90;;
49828;SDS011;35723;51.194;5.112;2024-03-25T14:09:33;9.25;;;2.70;;
49828;SDS011;35723;51.194;5.112;2024-03-25T14:11:59;7.50;;;2.60;;
49828;SDS011;35723;51.194;5.112;2024-03-25T14:14:25;11.50;;;2.90;;
49828;SDS011;35723;51.194;5.112;2024-03-25T14:16:50;10.15;;;3.15;;
49828;SDS011;35723;51.194;5.112;2024-03-25T14:19:17;10.98;;;3.00;;
49828;SDS011;35723;51.194;5.112;2024-03-25T14:21:42;9.10;;;2.63;;
49828;SDS011;35723;51.194;5.112;2024-03-25T14:24:08;10.57;;;3.20;;
49828;SDS011;35723;51.194;5.112;2024-03-25T14:26:34;10.27;;;2.80;;
49828;SDS011;35723;51.194;5.112;2024-03-25T14:29:00;10.52;;;3.03;;
49828;SDS011;35723;51.194;5.112;2024-03-25T14:31:26;9.90;;;2.88;;
49828;SDS011;35723;51.194;5.112;2024-03-25T14:33:54;11.18;;;3.03;;
49828;SDS011;35723;51.194;5.112;2024-03-25T14:36:20;8.52;;;2.78;;
49828;SDS011;35723;51.194;5.112;2024-03-25T14:38:45;7.03;;;2.60;;
49828;SDS011;35723;51.194;5.112;2024-03-25T14:41:11;10.30;;;2.67;;
49828;SDS011;35723;51.194;5.112;2024-03-25T14:43:37;10.52;;;2.53;;
49828;SDS011;35723;51.194;5.112;2024-03-25T14:46:04;9.38;;;2.50;;
49828;SDS011;35723;51.194;5.112;2024-03-25T14:48:30;11.02;;;2.80;;
49828;SDS011;35723;51.194;5.112;2024-03-25T14:50:56;10.77;;;2.60;;
49828;SDS011;35723;51.194;5.112;2024-03-25T14:53:21;12.05;;;2.90;;
49828;SDS011;35723;51.194;5.112;2024-03-25T14:55:47;11.43;;;2.70;;
49828;SDS011;35723;51.194;5.112;2024-03-25T14:58:13;13.45;;;2.97;;
49828;SDS011;35723;51.194;5.112;2024-03-25T15:00:38;9.00;;;2.45;;
49828;SDS011;35723;51.194;5.112;2024-03-25T15:03:04;10.30;;;2.60;;
49828;SDS011;35723;51.194;5.112;2024-03-25T15:05:30;11.07;;;2.53;;
49828;SDS011;35723;51.194;5.112;2024-03-25T15:07:55;6.30;;;2.50;;
49828;SDS011;35723;51.194;5.112;2024-03-25T15:10:21;9.85;;;2.75;;
49828;SDS011;35723;51.194;5.112;2024-03-25T15:12:46;7.10;;;2.53;;
49828;SDS011;35723;51.194;5.112;2024-03-25T15:15:12;9.88;;;2.80;;
49828;SDS011;35723;51.194;5.112;2024-03-25T15:17:38;9.32;;;2.35;;
49828;SDS011;35723;51.194;5.112;2024-03-25T15:20:04;8.85;;;2.50;;
49828;SDS011;35723;51.194;5.112;2024-03-25T15:22:33;8.85;;;2.47;;
49828;SDS011;35723;51.194;5.112;2024-03-25T15:24:58;8.82;;;2.47;;
49828;SDS011;35723;51.194;5.112;2024-03-25T15:27:24;10.55;;;2.97;;
49828;SDS011;35723;51.194;5.112;2024-03-25T15:29:50;8.93;;;2.63;;
49828;SDS011;35723;51.194;5.112;2024-03-25T15:32:15;9.68;;;2.65;;
49828;SDS011;35723;51.194;5.112;2024-03-25T15:34:41;8.18;;;2.50;;
49828;SDS011;35723;51.194;5.112;2024-03-25T15:37:07;7.63;;;2.63;;
49828;SDS011;35723;51.194;5.112;2024-03-25T15:39:35;8.45;;;2.70;;
49828;SDS011;35723;51.194;5.112;2024-03-25T15:42:00;12.18;;;2.80;;
49828;SDS011;35723;51.194;5.112;2024-03-25T15:44:27;8.05;;;2.63;;
49828;SDS011;35723;51.194;5.112;2024-03-25T15:46:53;4.75;;;2.20;;
49828;SDS011;35723;51.194;5.112;2024-03-25T15:49:18;8.20;;;2.33;;
49828;SDS011;35723;51.194;5.112;2024-03-25T15:51:44;7.15;;;2.40;;
49828;SDS011;35723;51.194;5.112;2024-03-25T15:54:10;9.93;;;2.63;;
49828;SDS011;35723;51.194;5.112;2024-03-25T15:56:35;11.57;;;2.58;;
49828;SDS011;35723;51.194;5.112;2024-03-25T15:59:01;10.35;;;2.88;;
49828;SDS011;35723;51.194;5.112;2024-03-25T16:01:28;9.00;;;2.80;;
49828;SDS011;35723;51.194;5.112;2024-03-25T16:03:54;6.88;;;2.42;;
49828;SDS011;35723;51.194;5.112;2024-03-25T16:06:20;9.68;;;2.40;;
49828;SDS011;35723;51.194;5.112;2024-03-25T16:08:46;10.82;;;2.50;;
49828;SDS011;35723;51.194;5.112;2024-03-25T16:11:15;7.63;;;2.70;;
49828;SDS011;35723;51.194;5.112;2024-03-25T16:13:42;8.20;;;2.50;;
49828;SDS011;35723;51.194;5.112;2024-03-25T16:16:08;7.63;;;2.45;;
49828;SDS011;35723;51.194;5.112;2024-03-25T16:18:34;8.90;;;2.40;;
49828;SDS011;35723;51.194;5.112;2024-03-25T16:21:12;10.65;;;2.50;;
49828;SDS011;35723;51.194;5.112;2024-03-25T16:23:39;7.45;;;2.40;;
49828;SDS011;35723;51.194;5.112;2024-03-25T16:26:05;10.25;;;2.45;;
49828;SDS011;35723;51.194;5.112;2024-03-25T16:28:32;11.02;;;2.80;;
49828;SDS011;35723;51.194;5.112;2024-03-25T16:30:58;6.15;;;2.20;;
49828;SDS011;35723;51.194;5.112;2024-03-25T16:33:25;6.75;;;2.40;;
49828;SDS011;35723;51.194;5.112;2024-03-25T16:35:51;7.32;;;2.33;;
49828;SDS011;35723;51.194;5.112;2024-03-25T16:38:16;8.57;;;2.67;;
49828;SDS011;35723;51.194;5.112;2024-03-25T16:40:42;8.27;;;2.60;;
49828;SDS011;35723;51.194;5.112;2024-03-25T16:43:08;9.68;;;2.70;;
49828;SDS011;35723;51.194;5.112;2024-03-25T16:45:33;8.48;;;2.80;;
49828;SDS011;35723;51.194;5.112;2024-03-25T16:47:59;7.78;;;2.60;;
49828;SDS011;35723;51.194;5.112;2024-03-25T16:50:26;5.95;;;2.28;;
49828;SDS011;35723;51.194;5.112;2024-03-25T16:52:53;6.35;;;2.50;;
49828;SDS011;35723;51.194;5.112;2024-03-25T16:55:18;7.63;;;2.40;;
49828;SDS011;35723;51.194;5.112;2024-03-25T16:57:44;7.88;;;2.40;;
49828;SDS011;35723;51.194;5.112;2024-03-25T17:00:10;8.65;;;2.25;;
49828;SDS011;35723;51.194;5.112;2024-03-25T17:02:37;8.43;;;2.40;;
49828;SDS011;35723;51.194;5.112;2024-03-25T17:05:04;8.77;;;2.50;;
49828;SDS011;35723;51.194;5.112;2024-03-25T17:07:30;7.20;;;2.28;;
49828;SDS011;35723;51.194;5.112;2024-03-25T17:09:56;7.65;;;2.50;;
49828;SDS011;35723;51.194;5.112;2024-03-25T17:12:22;8.13;;;2.65;;
49828;SDS011;35723;51.194;5.112;2024-03-25T17:14:47;9.20;;;2.70;;
49828;SDS011;35723;51.194;5.112;2024-03-25T17:17:13;7.63;;;2.63;;
49828;SDS011;35723;51.194;5.112;2024-03-25T17:19:39;7.20;;;2.15;;
49828;SDS011;35723;51.194;5.112;2024-03-25T17:22:04;8.45;;;2.67;;
49828;SDS011;35723;51.194;5.112;2024-03-25T17:24:30;11.15;;;3.05;;
49828;SDS011;35723;51.194;5.112;2024-03-25T17:26:56;9.27;;;2.75;;
49828;SDS011;35723;51.194;5.112;2024-03-25T17:29:21;8.73;;;2.42;;
49828;SDS011;35723;51.194;5.112;2024-03-25T17:31:50;7.38;;;2.10;;
49828;SDS011;35723;51.194;5.112;2024-03-25T17:34:16;10.27;;;2.78;;
49828;SDS011;35723;51.194;5.112;2024-03-25T17:36:41;8.98;;;2.70;;
49828;SDS011;35723;51.194;5.112;2024-03-25T17:39:07;11.88;;;3.33;;
49828;SDS011;35723;51.194;5.112;2024-03-25T17:41:33;10.20;;;3.13;;
49828;SDS011;35723;51.194;5.112;2024-03-25T17:43:58;6.80;;;2.35;;
49828;SDS011;35723;51.194;5.112;2024-03-25T17:46:24;10.43;;;2.80;;
49828;SDS011;35723;51.194;5.112;2024-03-25T17:48:50;6.38;;;2.63;;
49828;SDS011;35723;51.194;5.112;2024-03-25T17:51:16;9.43;;;3.30;;
49828;SDS011;35723;51.194;5.112;2024-03-25T17:53:42;11.02;;;3.28;;
49828;SDS011;35723;51.194;5.112;2024-03-25T17:56:08;9.32;;;2.70;;
49828;SDS011;35723;51.194;5.112;2024-03-25T17:58:34;9.00;;;3.10;;
49828;SDS011;35723;51.194;5.112;2024-03-25T18:01:00;10.40;;;3.08;;
49828;SDS011;35723;51.194;5.112;2024-03-25T18:03:26;11.70;;;3.60;;
49828;SDS011;35723;51.194;5.112;2024-03-25T18:05:52;13.35;;;4.45;;
49828;SDS011;35723;51.194;5.112;2024-03-25T18:08:18;11.63;;;3.63;;
49828;SDS011;35723;51.194;5.112;2024-03-25T18:10:44;11.55;;;3.50;;
49828;SDS011;35723;51.194;5.112;2024-03-25T18:13:09;10.05;;;3.45;;
49828;SDS011;35723;51.194;5.112;2024-03-25T18:15:45;12.02;;;3.20;;
49828;SDS011;35723;51.194;5.112;2024-03-25T18:18:14;9.43;;;3.40;;
49828;SDS011;35723;51.194;5.112;2024-03-25T18:20:43;14.80;;;3.35;;
49828;SDS011;35723;51.194;5.112;2024-03-25T18:23:09;10.52;;;3.30;;
49828;SDS011;35723;51.194;5.112;2024-03-25T18:25:35;11.90;;;3.50;;
49828;SDS011;35723;51.194;5.112;2024-03-25T18:28:01;12.38;;;3.65;;
49828;SDS011;35723;51.194;5.112;2024-03-25T18:30:31;12.93;;;3.55;;
49828;SDS011;35723;51.194;5.112;2024-03-25T18:32:58;9.52;;;3.15;;
49828;SDS011;35723;51.194;5.112;2024-03-25T18:35:24;12.40;;;3.78;;
49828;SDS011;35723;51.194;5.112;2024-03-25T18:37:49;9.60;;;3.15;;
49828;SDS011;35723;51.194;5.112;2024-03-25T18:40:15;11.43;;;3.63;;
49828;SDS011;35723;51.194;5.112;2024-03-25T18:42:41;8.68;;;3.38;;
49828;SDS011;35723;51.194;5.112;2024-03-25T18:45:08;13.48;;;4.18;;
49828;SDS011;35723;51.194;5.112;2024-03-25T18:47:35;11.27;;;3.55;;
49828;SDS011;35723;51.194;5.112;2024-03-25T18:50:03;12.52;;;3.78;;
49828;SDS011;35723;51.194;5.112;2024-03-25T18:52:29;14.15;;;4.20;;
49828;SDS011;35723;51.194;5.112;2024-03-25T18:54:55;10.60;;;3.80;;
49828;SDS011;35723;51.194;5.112;2024-03-25T18:57:20;11.02;;;4.07;;
49828;SDS011;35723;51.194;5.112;2024-03-25T18:59:46;12.32;;;4.00;;
49828;SDS011;35723;51.194;5.112;2024-03-25T19:02:12;12.55;;;3.80;;
49828;SDS011;35723;51.194;5.112;2024-03-25T19:04:37;14.00;;;3.60;;
49828;SDS011;35723;51.194;5.112;2024-03-25T19:07:03;11.80;;;3.35;;
49828;SDS011;35723;51.194;5.112;2024-03-25T19:09:29;12.20;;;3.20;;
49828;SDS011;35723;51.194;5.112;2024-03-25T19:11:54;12.88;;;3.58;;
49828;SDS011;35723;51.194;5.112;2024-03-25T19:14:20;15.00;;;4.07;;
49828;SDS011;35723;51.194;5.112;2024-03-25T19:16:46;11.77;;;3.80;;
49828;SDS011;35723;51.194;5.112;2024-03-25T19:19:11;11.80;;;3.90;;
49828;SDS011;35723;51.194;5.112;2024-03-25T19:21:37;15.93;;;3.85;;
49828;SDS011;35723;51.194;5.112;2024-03-25T19:24:03;14.82;;;4.20;;
49828;SDS011;35723;51.194;5.112;2024-03-25T19:26:29;14.27;;;4.25;;
49828;SDS011;35723;51.194;5.112;2024-03-25T19:28:54;15.57;;;3.88;;
49828;SDS011;35723;51.194;5.112;2024-03-25T19:31:20;15.10;;;4.50;;
49828;SDS011;35723;51.194;5.112;2024-03-25T19:33:46;12.20;;;4.05;;
49828;SDS011;35723;51.194;5.112;2024-03-25T19:36:11;12.10;;;3.90;;
49828;SDS011;35723;51.194;5.112;2024-03-25T19:38:37;13.40;;;4.40;;
49828;SDS011;35723;51.194;5.112;2024-03-25T19:41:03;14.82;;;3.65;;
49828;SDS011;35723;51.194;5.112;2024-03-25T19:43:28;13.05;;;4.20;;
49828;SDS011;35723;51.194;5.112;2024-03-25T19:45:54;13.85;;;4.07;;
49828;SDS011;35723;51.194;5.112;2024-03-25T19:48:20;14.68;;;4.15;;
49828;SDS011;35723;51.194;5.112;2024-03-25T19:50:45;11.77;;;4.28;;
49828;SDS011;35723;51.194;5.112;2024-03-25T19:53:13;12.68;;;4.15;;